Time;durP1;ratioP1;P1;durP2;ratioP2;P2;SDS_P1;SDS_P2;PMS_P1;PMS_P2;Temp;Humidity;BMP_temperature;BMP_pressure;BME280_temperature;BME280_humidity;BME280_pressure;Samples;Min_cycle;Max_cycle;Signal;HPM_P1;HPM_P2
2023/11/19 00:00:12;;;;;;;0.50;0.20;;;;;;;4.32;59.41;100327.44;5305118;26;30482;-85
2023/11/19 00:02:38;;;;;;;0.00;0.00;;;;;;;4.28;59.42;100329.16;5306566;26;20060;-85
2023/11/19 00:05:06;;;;;;;0.00;0.00;;;;;;;4.25;59.41;100330.84;5306346;26;20079;-85
2023/11/19 00:07:31;;;;;;;0.25;0.20;;;;;;;4.18;59.41;100326.53;5305470;26;20477;-85
2023/11/19 00:09:57;;;;;;;0.00;0.00;;;;;;;4.38;59.43;100321.44;5305329;26;21978;-84
2023/11/19 00:12:22;;;;;;;0.60;0.32;;;;;;;4.40;59.42;100320.59;5304956;26;20087;-85
2023/11/19 00:14:48;;;;;;;0.00;0.00;;;;;;;4.40;59.42;100319.72;5304648;26;28127;-84
2023/11/19 00:17:13;;;;;;;0.45;0.45;;;;;;;4.25;59.41;100321.38;5323062;26;30929;-84
2023/11/19 00:19:38;;;;;;;1.45;0.62;;;;;;;4.30;59.42;100321.44;5305466;26;20362;-85
2023/11/19 00:22:04;;;;;;;2.20;1.65;;;;;;;4.25;59.41;100326.53;5304357;26;33131;-85
2023/11/19 00:24:30;;;;;;;0.00;0.00;;;;;;;4.28;59.42;100334.31;5305521;26;20061;-85
2023/11/19 00:26:56;;;;;;;0.13;0.13;;;;;;;4.31;59.41;100329.16;5287507;26;20059;-85
2023/11/19 00:29:21;;;;;;;0.00;0.00;;;;;;;4.27;59.42;100342.91;5304697;26;20063;-85
2023/11/19 00:31:47;;;;;;;0.62;0.32;;;;;;;4.28;59.42;100352.34;5305033;26;20097;-84
2023/11/19 00:34:13;;;;;;;0.20;0.20;;;;;;;4.31;59.42;100348.91;5305358;26;20091;-83
2023/11/19 00:36:38;;;;;;;1.85;1.75;;;;;;;4.27;59.42;100360.09;5323391;26;20091;-82
2023/11/19 00:39:05;;;;;;;0.30;0.30;;;;;;;4.22;59.42;100341.13;5305379;26;20073;-85
2023/11/19 00:41:30;;;;;;;0.13;0.13;;;;;;;4.24;59.41;100337.72;5324161;26;20111;-84
2023/11/19 00:43:56;;;;;;;0.05;0.05;;;;;;;4.17;59.41;100328.25;5322731;26;35123;-85
2023/11/19 00:46:21;;;;;;;0.10;0.10;;;;;;;4.08;59.40;100327.38;5304480;26;30925;-85
2023/11/19 00:48:47;;;;;;;0.10;0.10;;;;;;;4.08;59.41;100327.38;5304699;26;30896;-85
2023/11/19 00:51:12;;;;;;;0.32;0.32;;;;;;;3.97;59.39;100327.31;5323195;26;20095;-84
2023/11/19 00:53:38;;;;;;;0.00;0.00;;;;;;;3.95;59.39;100329.88;5305316;26;20162;-85
2023/11/19 00:56:03;;;;;;;2.35;2.17;;;;;;;4.04;59.40;100323.06;5323042;26;22221;-85
2023/11/19 00:58:29;;;;;;;0.00;0.00;;;;;;;4.12;59.40;100326.53;5304863;26;20065;-85
2023/11/19 01:00:55;;;;;;;0.00;0.00;;;;;;;4.09;59.40;100319.66;5305246;26;20118;-85
2023/11/19 01:03:20;;;;;;;0.10;0.10;;;;;;;4.17;59.41;100320.53;5305250;26;20349;-84
2023/11/19 01:05:46;;;;;;;0.25;0.25;;;;;;;4.21;59.41;100319.66;5323655;26;20107;-84
2023/11/19 01:08:12;;;;;;;0.00;0.00;;;;;;;4.12;59.40;100314.50;5306311;26;20048;-84
2023/11/19 01:10:37;;;;;;;0.28;0.28;;;;;;;4.07;59.40;100320.50;5324731;26;20079;-84
2023/11/19 01:13:05;;;;;;;0.10;0.10;;;;;;;4.06;59.40;100327.38;5323990;26;22694;-84
2023/11/19 01:15:33;;;;;;;0.80;0.80;;;;;;;4.01;59.40;100331.63;5306456;26;20070;-84
2023/11/19 01:17:59;;;;;;;0.00;0.00;;;;;;;4.01;59.40;100321.31;5307119;26;20052;-85
2023/11/19 01:20:24;;;;;;;0.10;0.10;;;;;;;3.83;59.38;100318.69;5325059;26;26514;-84
2023/11/19 01:22:50;;;;;;;0.00;0.00;;;;;;;3.80;59.38;100314.38;5325572;26;20061;-84
2023/11/19 01:25:15;;;;;;;0.40;0.40;;;;;;;3.97;59.39;100307.56;5289002;26;20409;-84
2023/11/19 01:27:41;;;;;;;1.87;1.75;;;;;;;3.94;59.39;100307.56;5325569;26;20069;-84
2023/11/19 01:30:12;;;;;;;0.00;0.00;;;;;;;3.93;59.39;100313.56;5306197;26;27025;-83
2023/11/19 01:32:38;;;;;;;0.00;0.00;;;;;;;3.99;59.40;100312.72;5307583;26;20131;-84
2023/11/19 01:35:04;;;;;;;0.10;0.10;;;;;;;4.01;59.40;100309.28;5306907;26;20165;-84
2023/11/19 01:37:29;;;;;;;0.10;0.10;;;;;;;4.15;59.41;100313.66;5307263;26;20068;-84
2023/11/19 01:39:55;;;;;;;0.37;0.37;;;;;;;4.06;59.40;100311.91;5306996;26;20075;-84
2023/11/19 01:42:20;;;;;;;0.00;0.00;;;;;;;3.95;59.39;100317.00;5306369;26;28623;-84
2023/11/19 01:44:57;;;;;;;0.32;0.30;;;;;;;3.94;59.39;100314.44;5325225;26;20072;-85
2023/11/19 01:47:23;;;;;;;0.70;0.70;;;;;;;3.92;59.40;100311.84;5289257;26;20114;-85
2023/11/19 01:49:48;;;;;;;0.20;0.20;;;;;;;4.02;59.40;100305.00;5307233;26;20064;-84
2023/11/19 01:52:13;;;;;;;0.00;0.00;;;;;;;3.96;59.39;100300.69;5324585;26;31313;-84
2023/11/19 01:54:39;;;;;;;0.75;0.75;;;;;;;3.96;59.40;100287.81;5306527;26;23756;-84
2023/11/19 01:57:04;;;;;;;0.60;0.40;;;;;;;4.02;59.40;100286.97;5306212;26;33642;-84
2023/11/19 01:59:30;;;;;;;0.00;0.00;;;;;;;3.96;59.39;100282.66;5307025;26;20064;-84
2023/11/19 02:01:56;;;;;;;5.45;1.25;;;;;;;4.08;59.40;100274.13;5306597;26;28069;-85
2023/11/19 02:04:22;;;;;;;0.88;0.88;;;;;;;4.14;59.41;100271.56;5307643;26;20055;-84
2023/11/19 02:06:48;;;;;;;0.20;0.20;;;;;;;3.89;59.39;100268.06;5307122;26;20072;-85
2023/11/19 02:09:13;;;;;;;0.43;0.43;;;;;;;3.95;59.39;100262.91;5307165;26;20065;-85
2023/11/19 02:11:42;;;;;;;0.20;0.20;;;;;;;3.76;59.38;100262.84;5306603;26;29739;-84
2023/11/19 02:14:07;;;;;;;0.00;0.00;;;;;;;3.74;59.38;100264.56;5307291;26;20060;-85
2023/11/19 02:16:33;;;;;;;0.00;0.00;;;;;;;3.72;59.38;100263.69;5325108;26;23162;-85
2023/11/19 02:18:58;;;;;;;0.50;0.50;;;;;;;3.70;59.38;100272.28;5307093;26;20080;-85
2023/11/19 02:21:24;;;;;;;0.00;0.00;;;;;;;3.72;59.38;100274.84;5307343;26;20084;-85
2023/11/19 02:23:50;;;;;;;0.03;0.03;;;;;;;3.68;59.37;100273.12;5307312;26;20107;-85
2023/11/19 02:26:26;;;;;;;1.50;0.77;;;;;;;3.72;59.38;100254.25;5307191;26;20443;-85
2023/11/19 02:28:52;;;;;;;0.00;0.00;;;;;;;3.67;59.38;100253.38;5288299;26;20467;-84
2023/11/19 02:31:19;;;;;;;0.00;0.00;;;;;;;3.69;59.38;100260.25;5306522;26;20122;-84
2023/11/19 02:33:44;;;;;;;0.52;0.52;;;;;;;3.60;59.38;100260.22;5306948;26;20071;-84
2023/11/19 02:36:10;;;;;;;0.08;0.08;;;;;;;3.56;59.37;100263.66;5306726;26;20118;-84
2023/11/19 02:38:38;;;;;;;0.10;0.10;;;;;;;3.52;59.37;100266.19;5306853;26;20068;-84
2023/11/19 02:41:05;;;;;;;0.00;0.00;;;;;;;3.61;59.38;100266.25;5307136;26;20077;-84
2023/11/19 02:43:33;;;;;;;0.10;0.10;;;;;;;3.50;59.37;100261.03;5325496;26;20075;-84
2023/11/19 02:46:06;;;;;;;0.00;0.00;;;;;;;3.60;59.37;100254.22;5307327;26;20341;-84
2023/11/19 02:48:32;;;;;;;0.32;0.32;;;;;;;3.39;59.37;100248.13;5290139;26;20060;-84
2023/11/19 02:50:58;;;;;;;0.10;0.10;;;;;;;3.41;59.37;100235.25;5306757;26;20436;-84
2023/11/19 02:53:24;;;;;;;0.40;0.40;;;;;;;3.42;59.36;100239.56;5325664;26;20052;-85
2023/11/19 02:55:50;;;;;;;0.10;0.10;;;;;;;3.45;59.36;100237.00;5307273;26;20744;-85
2023/11/19 02:58:23;;;;;;;0.10;0.10;;;;;;;3.36;59.36;100230.09;5307373;26;20072;-85
2023/11/19 03:00:57;;;;;;;0.10;0.10;;;;;;;3.25;59.36;100242.03;5291407;26;20480;-85
2023/11/19 03:03:28;;;;;;;0.00;0.00;;;;;;;3.24;59.36;100235.16;5309427;26;20070;-84
2023/11/19 03:05:53;;;;;;;0.08;0.08;;;;;;;3.28;59.36;100223.19;5308319;26;20101;-85
2023/11/19 03:08:19;;;;;;;0.20;0.20;;;;;;;3.48;59.37;100223.28;5306380;26;36975;-85
2023/11/19 03:10:45;;;;;;;2.00;1.62;;;;;;;3.27;59.36;100213.75;5306013;26;34669;-85
2023/11/19 03:13:12;;;;;;;0.00;0.00;;;;;;;3.32;59.36;100217.22;5307370;26;20068;-85
2023/11/19 03:15:38;;;;;;;1.33;1.23;;;;;;;3.34;59.37;100221.50;5288753;26;20119;-85
2023/11/19 03:18:03;;;;;;;0.32;0.32;;;;;;;3.26;59.36;100215.44;5304185;26;20060;-83
2023/11/19 03:20:30;;;;;;;0.00;0.00;;;;;;;3.36;59.36;100206.94;5303792;26;28193;-84
2023/11/19 03:22:55;;;;;;;2.17;0.77;;;;;;;3.28;59.36;100211.16;5304470;26;20056;-85
2023/11/19 03:25:21;;;;;;;0.60;0.60;;;;;;;3.29;59.35;100218.03;5322777;26;20475;-85
2023/11/19 03:27:46;;;;;;;0.00;0.00;;;;;;;3.31;59.37;100213.78;5304729;26;20080;-84
2023/11/19 03:30:12;;;;;;;0.05;0.05;;;;;;;3.43;59.36;100214.69;5303908;26;20103;-83
2023/11/19 03:32:38;;;;;;;0.15;0.15;;;;;;;3.63;59.38;100207.91;5324947;26;20083;-84
2023/11/19 03:35:06;;;;;;;0.28;0.28;;;;;;;3.36;59.36;100206.09;5305218;26;20057;-84
2023/11/19 03:37:32;;;;;;;0.00;0.00;;;;;;;3.22;59.35;100225.72;5288155;26;20056;-84
2023/11/19 03:39:59;;;;;;;0.00;0.00;;;;;;;3.24;59.35;100208.59;5306623;26;20110;-85
2023/11/19 03:42:26;;;;;;;1.00;0.95;;;;;;;3.16;59.34;100195.69;5325502;26;20093;-84
2023/11/19 03:44:52;;;;;;;1.40;1.30;;;;;;;3.18;59.36;100198.28;5306849;26;20053;-85
2023/11/19 03:47:17;;;;;;;0.00;0.00;;;;;;;3.28;59.36;100185.44;5288252;26;20065;-84
2023/11/19 03:49:48;;;;;;;0.00;0.00;;;;;;;3.31;59.35;100174.31;5306008;26;23958;-84
2023/11/19 03:52:13;;;;;;;0.10;0.10;;;;;;;3.21;59.35;100164.84;5307086;26;20064;-85
2023/11/19 03:54:39;;;;;;;0.45;0.45;;;;;;;3.18;59.35;100164.84;5306457;26;20398;-85
2023/11/19 03:57:05;;;;;;;0.68;0.68;;;;;;;3.11;59.35;100165.66;5306138;26;21514;-84
2023/11/19 03:59:30;;;;;;;0.37;0.37;;;;;;;3.04;59.34;100172.47;5306546;26;20123;-83
2023/11/19 04:01:56;;;;;;;0.00;0.00;;;;;;;3.10;59.35;100169.94;5324875;26;20052;-85
2023/11/19 04:04:22;;;;;;;0.08;0.08;;;;;;;3.22;59.35;100162.28;5325149;26;20403;-85
2023/11/19 04:06:47;;;;;;;1.27;1.17;;;;;;;3.20;59.35;100151.12;5325075;26;20157;-84
2023/11/19 04:09:12;;;;;;;0.85;0.82;;;;;;;3.00;59.34;100142.44;5324223;26;29270;-85
2023/11/19 04:11:39;;;;;;;5.50;0.43;;;;;;;3.07;59.34;100145.03;5324241;26;30894;-85
2023/11/19 04:14:04;;;;;;;0.05;0.05;;;;;;;3.11;59.35;100133.09;5307097;26;20049;-85
2023/11/19 04:16:29;;;;;;;0.10;0.10;;;;;;;3.19;59.35;100139.13;5324126;26;28192;-84
2023/11/19 04:18:55;;;;;;;0.08;0.08;;;;;;;3.06;59.34;100139.91;5306879;26;20401;-85
2023/11/19 04:21:20;;;;;;;0.00;0.00;;;;;;;3.00;59.34;100145.03;5324631;26;28241;-83
2023/11/19 04:23:46;;;;;;;0.00;0.00;;;;;;;3.19;59.36;100151.12;5305913;26;31133;-85
2023/11/19 04:26:11;;;;;;;0.75;0.75;;;;;;;3.04;59.34;100141.59;5324546;26;22263;-84
2023/11/19 04:28:36;;;;;;;0.30;0.30;;;;;;;3.08;59.34;100130.50;5324212;26;26576;-84
2023/11/19 04:31:03;;;;;;;2.40;0.52;;;;;;;3.12;59.35;100124.53;5324968;26;20095;-84
2023/11/19 04:33:28;;;;;;;0.55;0.55;;;;;;;3.18;59.35;100126.25;5306493;26;20118;-85
2023/11/19 04:35:54;;;;;;;0.80;0.80;;;;;;;2.95;59.33;100133.84;5306254;26;20092;-85
2023/11/19 04:38:19;;;;;;;0.80;0.80;;;;;;;2.78;59.32;100131.19;5306065;26;23652;-84
2023/11/19 04:40:44;;;;;;;1.60;1.50;;;;;;;2.96;59.34;100133.00;5306609;26;20394;-85
2023/11/19 04:43:10;;;;;;;0.98;0.98;;;;;;;2.94;59.33;100142.44;5325001;26;20060;-84
2023/11/19 04:45:35;;;;;;;0.10;0.10;;;;;;;2.98;59.34;100146.72;5324947;26;20064;-85
2023/11/19 04:48:01;;;;;;;0.25;0.20;;;;;;;2.98;59.34;100145.00;5324696;26;20370;-85
2023/11/19 04:50:27;;;;;;;0.68;0.47;;;;;;;2.93;59.33;100151.84;5305532;26;29272;-85
2023/11/19 04:52:53;;;;;;;3.95;0.95;;;;;;;2.99;59.34;100162.16;5306727;26;20128;-85
2023/11/19 04:55:19;;;;;;;0.40;0.40;;;;;;;2.94;59.33;100176.72;5307503;26;20061;-85
2023/11/19 04:57:44;;;;;;;1.62;1.20;;;;;;;2.96;59.34;100171.56;5306798;26;27794;-84
2023/11/19 05:00:12;;;;;;;1.85;1.37;;;;;;;2.99;59.34;100174.16;5306557;26;35120;-84
2023/11/19 05:02:37;;;;;;;0.70;0.68;;;;;;;2.99;59.34;100157.03;5307665;26;20079;-85
2023/11/19 05:05:07;;;;;;;0.35;0.35;;;;;;;3.11;59.35;100143.38;5306813;26;24922;-85
2023/11/19 05:07:32;;;;;;;1.75;1.65;;;;;;;2.88;59.34;100138.13;5308066;26;20064;-84
2023/11/19 05:09:58;;;;;;;0.62;0.62;;;;;;;3.00;59.34;100145.87;5307183;26;20079;-84
2023/11/19 05:12:23;;;;;;;0.28;0.28;;;;;;;3.02;59.34;100151.03;5307367;26;20068;-85
2023/11/19 05:14:50;;;;;;;0.52;0.52;;;;;;;3.11;59.35;100150.22;5306632;26;25088;-85
2023/11/19 05:17:19;;;;;;;0.00;0.00;;;;;;;3.09;59.34;100155.37;5307950;26;20130;-85
2023/11/19 05:19:44;;;;;;;0.15;0.15;;;;;;;3.12;59.35;100157.09;5289327;26;20407;-85
2023/11/19 05:22:10;;;;;;;0.43;0.43;;;;;;;3.08;59.34;100158.78;5289359;26;20090;-84
2023/11/19 05:24:35;;;;;;;0.00;0.00;;;;;;;3.15;59.35;100150.25;5306596;26;38180;-85
2023/11/19 05:27:01;;;;;;;0.00;0.00;;;;;;;3.31;59.35;100138.28;5325843;26;20090;-84
2023/11/19 05:29:27;;;;;;;0.00;0.00;;;;;;;3.29;59.35;100140.00;5307274;26;20153;-85
2023/11/19 05:31:52;;;;;;;0.00;0.00;;;;;;;3.28;59.36;100154.56;5306181;26;20082;-85
2023/11/19 05:34:17;;;;;;;0.05;0.05;;;;;;;3.12;59.35;100141.66;5305294;26;29130;-85
2023/11/19 05:36:43;;;;;;;0.25;0.25;;;;;;;3.21;59.35;100142.53;5305284;26;31255;-84
2023/11/19 05:39:08;;;;;;;1.73;1.62;;;;;;;3.30;59.35;100134.84;5306214;26;20375;-85
2023/11/19 05:41:34;;;;;;;0.20;0.20;;;;;;;3.51;59.37;100134.06;5323940;26;27269;-84
2023/11/19 05:43:59;;;;;;;0.90;0.90;;;;;;;3.41;59.37;100142.63;5305184;26;34259;-84
2023/11/19 05:46:26;;;;;;;0.57;0.57;;;;;;;3.24;59.35;100146.84;5305482;26;29083;-85
2023/11/19 05:48:52;;;;;;;0.00;0.00;;;;;;;3.31;59.35;100138.28;5306785;26;20851;-84
2023/11/19 05:51:18;;;;;;;0.40;0.40;;;;;;;3.20;59.35;100135.69;5324549;26;20059;-85
2023/11/19 05:53:43;;;;;;;0.32;0.32;;;;;;;3.15;59.35;100142.53;5305404;26;27526;-84
2023/11/19 05:56:09;;;;;;;0.22;0.22;;;;;;;3.37;59.36;100139.19;5305922;26;20060;-83
2023/11/19 05:58:35;;;;;;;0.28;0.28;;;;;;;3.54;59.38;100143.50;5305995;26;20071;-85
2023/11/19 06:01:01;;;;;;;0.85;0.85;;;;;;;3.24;59.36;100147.69;5305219;26;20071;-84
2023/11/19 06:03:26;;;;;;;0.00;0.00;;;;;;;3.22;59.35;100148.56;5305951;26;20068;-84
2023/11/19 06:05:52;;;;;;;1.23;1.10;;;;;;;3.30;59.35;100147.72;5305530;26;20402;-84
2023/11/19 06:08:17;;;;;;;0.32;0.32;;;;;;;3.26;59.36;100143.41;5306068;26;20754;-84
2023/11/19 06:10:46;;;;;;;0.75;0.75;;;;;;;3.59;59.37;100124.66;5305671;26;20138;-84
2023/11/19 06:13:11;;;;;;;0.47;0.47;;;;;;;3.49;59.37;100128.06;5306683;26;20081;-84
2023/11/19 06:15:37;;;;;;;0.00;0.00;;;;;;;3.43;59.36;100114.31;5305692;26;20448;-84
2023/11/19 06:18:03;;;;;;;0.37;0.37;;;;;;;3.29;59.35;100111.69;5305840;26;20080;-84
2023/11/19 06:20:32;;;;;;;0.62;0.22;;;;;;;3.33;59.37;100118.59;5287750;26;20422;-84
2023/11/19 06:22:58;;;;;;;0.62;0.62;;;;;;;3.46;59.37;100117.75;5306039;26;20102;-84
2023/11/19 06:25:26;;;;;;;0.10;0.10;;;;;;;3.18;59.35;100129.69;5324352;26;20076;-85
2023/11/19 06:27:52;;;;;;;0.55;0.55;;;;;;;3.26;59.36;100109.97;5306189;26;20076;-85
2023/11/19 06:30:18;;;;;;;0.30;0.20;;;;;;;3.36;59.36;100106.59;5275392;27;103112;-85
2023/11/19 06:32:43;;;;;;;1.52;1.20;;;;;;;3.45;59.36;100103.19;5267929;27;20056;-85
2023/11/19 06:35:09;;;;;;;0.32;0.30;;;;;;;3.57;59.37;100097.22;5281451;27;20071;-83
2023/11/19 06:37:43;;;;;;;0.95;0.82;;;;;;;3.63;59.38;100103.22;5263669;27;20061;-84
2023/11/19 06:40:09;;;;;;;0.00;0.00;;;;;;;3.90;59.39;100096.38;5281309;27;20060;-85
2023/11/19 06:42:35;;;;;;;0.00;0.00;;;;;;;3.76;59.39;100104.06;5281221;27;20103;-85
2023/11/19 06:45:01;;;;;;;0.37;0.37;;;;;;;3.75;59.38;100104.06;5281451;27;20082;-85
2023/11/19 06:47:27;;;;;;;0.00;0.00;;;;;;;3.93;59.39;100099.81;5281570;27;20073;-84
2023/11/19 06:49:53;;;;;;;0.32;0.25;;;;;;;4.04;59.40;100098.97;5281685;27;20053;-84
2023/11/19 06:52:19;;;;;;;0.55;0.55;;;;;;;4.17;59.41;100092.94;5280969;27;20341;-84
2023/11/19 06:54:45;;;;;;;0.00;0.00;;;;;;;4.12;59.40;100079.22;5281630;27;20374;-84
2023/11/19 06:57:11;;;;;;;0.00;0.00;;;;;;;4.13;59.41;100089.50;5299559;27;20108;-84
2023/11/19 06:59:36;;;;;;;0.08;0.08;;;;;;;4.34;59.41;100082.62;5299625;27;20053;-85
2023/11/19 07:02:02;;;;;;;1.55;1.45;;;;;;;4.23;59.41;100072.31;5281546;27;20079;-84
2023/11/19 07:04:27;;;;;;;0.20;0.20;;;;;;;4.36;59.42;100063.72;5281575;27;20777;-84
2023/11/19 07:06:53;;;;;;;0.62;0.62;;;;;;;4.68;59.44;100070.50;5280048;27;26388;-85
2023/11/19 07:09:18;;;;;;;0.93;0.30;;;;;;;4.77;59.44;100070.50;5262968;27;20053;-85
2023/11/19 07:11:45;;;;;;;0.20;0.20;;;;;;;4.94;59.46;100071.25;5263288;27;20064;-84
2023/11/19 07:14:11;;;;;;;1.17;1.02;;;;;;;4.78;59.44;100074.78;5263672;27;20343;-84
2023/11/19 07:16:39;;;;;;;0.82;0.32;;;;;;;4.83;59.44;100080.78;5280874;27;20088;-83
2023/11/19 07:19:05;;;;;;;5.00;1.87;;;;;;;4.86;59.44;100070.44;5281652;27;20060;-84
2023/11/19 07:21:31;;;;;;;0.88;0.57;;;;;;;4.83;59.44;100065.31;5281324;27;20032;-84
2023/11/19 07:23:56;;;;;;;0.00;0.00;;;;;;;4.89;59.45;100068.72;5299831;27;20406;-85
2023/11/19 07:26:22;;;;;;;0.00;0.00;;;;;;;4.99;59.45;100073.84;5280637;27;26847;-85
2023/11/19 07:28:47;;;;;;;2.58;0.25;;;;;;;4.94;59.46;100076.41;5281196;27;20053;-85
2023/11/19 07:31:13;;;;;;;0.40;0.40;;;;;;;4.96;59.45;100077.28;5290088;27;20075;-84
2023/11/19 07:33:39;;;;;;;0.28;0.28;;;;;;;5.05;59.46;100066.94;5281246;27;20199;-84
2023/11/19 07:36:05;;;;;;;0.28;0.20;;;;;;;5.10;59.46;100060.03;5281277;27;20073;-85
2023/11/19 07:38:30;;;;;;;1.17;0.70;;;;;;;5.08;59.45;100059.19;5281109;27;20099;-84
2023/11/19 07:40:56;;;;;;;5.15;2.62;;;;;;;4.92;59.45;100070.41;5281224;27;20064;-84
2023/11/19 07:43:21;;;;;;;0.25;0.25;;;;;;;5.03;59.46;100078.13;5281094;27;20057;-84
2023/11/19 07:45:47;;;;;;;0.62;0.62;;;;;;;4.94;59.46;100086.75;5298500;27;31018;-85
2023/11/19 07:48:13;;;;;;;0.90;0.90;;;;;;;4.87;59.45;100087.63;5280459;27;27673;-83
2023/11/19 07:50:41;;;;;;;0.47;0.47;;;;;;;4.92;59.45;100091.91;5281112;27;20068;-85
2023/11/19 07:53:07;;;;;;;1.12;1.02;;;;;;;4.97;59.45;100088.44;5280722;27;20123;-85
2023/11/19 07:55:33;;;;;;;1.40;1.30;;;;;;;5.13;59.46;100096.12;5281124;27;20387;-84
2023/11/19 07:57:58;;;;;;;1.00;0.90;;;;;;;5.11;59.46;100095.28;5281281;27;20061;-85
2023/11/19 08:00:24;;;;;;;0.43;0.43;;;;;;;5.39;59.48;100089.97;5279897;27;32301;-85
2023/11/19 08:02:49;;;;;;;0.37;0.37;;;;;;;5.53;59.47;100080.44;5298702;27;27198;-84
2023/11/19 08:05:15;;;;;;;0.70;0.70;;;;;;;5.40;59.48;100083.94;5280317;27;28487;-83
2023/11/19 08:07:41;;;;;;;2.08;1.05;;;;;;;5.54;59.49;100076.97;5280929;27;20123;-85
2023/11/19 08:10:09;;;;;;;1.65;1.55;;;;;;;5.44;59.48;100071.03;5280987;27;20076;-85
2023/11/19 08:12:35;;;;;;;1.75;0.47;;;;;;;5.48;59.48;100066.72;5263667;27;20126;-85
2023/11/19 08:15:02;;;;;;;0.10;0.10;;;;;;;5.73;59.49;100054.47;5299007;27;20045;-86
2023/11/19 08:17:27;;;;;;;4.43;2.50;;;;;;;5.87;59.50;100037.97;5281107;27;20083;-87
2023/11/19 08:19:52;;;;;;;4.03;2.70;;;;;;;5.99;59.51;100036.22;5280593;27;20057;-86
2023/11/19 08:22:18;;;;;;;0.90;0.90;;;;;;;6.13;59.52;100019.69;5280377;27;23657;-86
2023/11/19 08:24:43;;;;;;;3.35;3.08;;;;;;;6.08;59.52;100012.88;5280207;27;27250;-86
2023/11/19 08:27:09;;;;;;;8.45;4.50;;;;;;;6.12;59.51;100006.78;5280334;27;29749;-87
2023/11/19 08:29:34;;;;;;;11.85;3.40;;;;;;;6.17;59.52;99991.25;5299289;27;29758;-85
2023/11/19 08:32:03;;;;;;;8.75;4.78;;;;;;;6.21;59.52;99982.59;5297384;27;20069;-86
2023/11/19 08:34:29;;;;;;;1.80;1.40;;;;;;;6.18;59.51;100008.47;5299987;27;20120;-87
2023/11/19 08:36:54;;;;;;;1.67;1.37;;;;;;;6.18;59.52;100032.59;5300057;27;20126;-86
2023/11/19 08:39:23;;;;;;;0.95;0.95;;;;;;;6.39;59.53;100037.56;5299158;27;29175;-87
2023/11/19 08:41:48;;;;;;;1.25;1.08;;;;;;;6.38;59.53;100030.63;5300064;27;20073;-87
2023/11/19 08:44:14;;;;;;;2.60;2.40;;;;;;;6.35;59.54;100012.56;5300040;27;20410;-86
2023/11/19 08:46:39;;;;;;;0.73;0.73;;;;;;;6.46;59.54;100010.75;5299934;27;20429;-86
2023/11/19 08:49:05;;;;;;;0.50;0.50;;;;;;;6.64;59.54;99990.72;5299876;27;20410;-86
2023/11/19 08:51:31;;;;;;;0.20;0.20;;;;;;;6.69;59.54;99974.28;5299545;27;20124;-87
2023/11/19 08:53:57;;;;;;;0.82;0.75;;;;;;;6.70;59.55;99995.81;5318093;27;25230;-86
2023/11/19 08:56:22;;;;;;;0.62;0.62;;;;;;;6.72;59.55;100007.00;5300035;27;20401;-86
2023/11/19 08:58:48;;;;;;;9.27;1.95;;;;;;;6.69;59.55;99983.75;5299928;27;20092;-86
2023/11/19 09:01:13;;;;;;;0.30;0.30;;;;;;;6.76;59.55;99993.16;5299220;27;32821;-85
2023/11/19 09:03:39;;;;;;;0.73;0.70;;;;;;;6.85;59.55;100002.50;5299182;27;26729;-84
2023/11/19 09:06:04;;;;;;;3.62;0.90;;;;;;;6.82;59.56;100003.41;5317745;27;20104;-84
2023/11/19 09:08:29;;;;;;;0.90;0.90;;;;;;;7.06;59.56;100000.50;5318254;27;20472;-84
2023/11/19 09:10:55;;;;;;;2.37;1.23;;;;;;;7.17;59.57;100000.37;5299401;27;20073;-84
2023/11/19 09:13:20;;;;;;;0.70;0.70;;;;;;;7.11;59.58;100005.63;5318276;27;20311;-84
2023/11/19 09:15:46;;;;;;;8.20;4.62;;;;;;;7.02;59.56;100003.16;5318378;27;20127;-84
2023/11/19 09:18:11;;;;;;;8.98;2.37;;;;;;;7.27;59.58;100012.28;5317023;27;29914;-84
2023/11/19 09:20:38;;;;;;;2.05;1.42;;;;;;;7.27;59.58;100012.28;5299256;27;20394;-85
2023/11/19 09:23:05;;;;;;;2.33;0.20;;;;;;;7.21;59.58;100011.53;5299999;27;20056;-85
2023/11/19 09:25:30;;;;;;;1.52;1.42;;;;;;;7.28;59.58;100008.81;5299625;27;20075;-84
2023/11/19 09:27:59;;;;;;;0.30;0.30;;;;;;;7.49;59.60;100001.62;5299344;27;20393;-83
2023/11/19 09:30:25;;;;;;;0.75;0.55;;;;;;;7.53;59.59;100004.13;5282903;27;20084;-86
2023/11/19 09:32:50;;;;;;;2.35;1.87;;;;;;;7.42;59.59;99998.28;5299545;27;20370;-85
2023/11/19 09:35:16;;;;;;;0.25;0.25;;;;;;;7.58;59.60;100004.06;5299417;27;20080;-85
2023/11/19 09:37:41;;;;;;;0.22;0.22;;;;;;;7.61;59.59;100002.28;5299623;27;20057;-85
2023/11/19 09:40:09;;;;;;;3.12;1.87;;;;;;;7.65;59.60;99991.00;5299551;27;20119;-86
2023/11/19 09:42:44;;;;;;;1.12;0.62;;;;;;;7.34;59.58;99985.44;5299942;27;20071;-86
2023/11/19 09:45:13;;;;;;;0.00;0.00;;;;;;;7.43;59.59;99974.09;5301079;27;20045;-85
2023/11/19 09:47:39;;;;;;;1.45;1.35;;;;;;;7.37;59.59;99969.84;5299032;27;20381;-84
2023/11/19 09:50:04;;;;;;;1.65;1.30;;;;;;;7.51;59.59;99979.97;5298957;27;20091;-85
2023/11/19 09:52:30;;;;;;;1.80;1.60;;;;;;;7.61;59.60;99970.34;5299469;27;20100;-85
2023/11/19 09:54:55;;;;;;;0.80;0.80;;;;;;;7.61;59.59;99983.31;5299505;27;20119;-85
2023/11/19 09:57:21;;;;;;;2.35;0.80;;;;;;;7.53;59.59;99969.59;5299352;27;20119;-85
2023/11/19 09:59:46;;;;;;;7.55;1.33;;;;;;;7.65;59.60;99962.50;5298717;27;22207;-85
2023/11/19 10:02:12;;;;;;;1.77;1.60;;;;;;;7.58;59.60;99950.53;5299528;27;20052;-85
2023/11/19 10:04:37;;;;;;;2.75;2.05;;;;;;;7.77;59.62;99950.19;5317305;27;22439;-85
2023/11/19 10:07:03;;;;;;;9.63;2.55;;;;;;;7.73;59.60;99949.41;5299415;27;20374;-85
2023/11/19 10:09:29;;;;;;;0.40;0.40;;;;;;;7.92;59.62;99945.59;5299560;27;20069;-85
2023/11/19 10:11:54;;;;;;;2.08;1.17;;;;;;;7.91;59.61;99930.09;5299331;27;20072;-85
2023/11/19 10:14:22;;;;;;;0.90;0.90;;;;;;;7.97;59.62;99930.81;5299541;27;20053;-84
2023/11/19 10:16:47;;;;;;;0.93;0.22;;;;;;;8.18;59.63;99933.91;5281032;27;20128;-85
2023/11/19 10:19:19;;;;;;;3.85;1.20;;;;;;;7.99;59.63;99928.19;5299288;27;20100;-84
2023/11/19 10:21:46;;;;;;;0.55;0.55;;;;;;;8.18;59.63;99921.78;5299530;27;20122;-84
2023/11/19 10:24:11;;;;;;;3.30;1.62;;;;;;;8.30;59.63;99915.53;5299690;27;20045;-85
2023/11/19 10:26:37;;;;;;;2.35;1.33;;;;;;;8.25;59.64;99907.81;5317658;27;20091;-85
2023/11/19 10:29:02;;;;;;;1.55;1.05;;;;;;;8.35;59.63;99894.69;5299171;27;20075;-85
2023/11/19 10:31:27;;;;;;;0.10;0.10;;;;;;;8.48;59.65;99896.13;5319721;27;30372;-85
2023/11/19 10:33:53;;;;;;;0.40;0.40;;;;;;;8.39;59.64;99892.00;5283628;27;24023;-85
2023/11/19 10:36:19;;;;;;;3.10;2.37;;;;;;;8.49;59.65;99897.84;5284578;27;20080;-85
2023/11/19 10:38:55;;;;;;;0.20;0.20;;;;;;;8.43;59.64;99901.44;5284590;27;20060;-85
2023/11/19 10:41:30;;;;;;;4.78;0.43;;;;;;;8.47;59.65;99889.25;5284747;27;20075;-85
2023/11/19 10:43:56;;;;;;;1.12;1.00;;;;;;;8.52;59.66;99893.47;5284570;27;20053;-85
2023/11/19 10:46:22;;;;;;;1.58;1.42;;;;;;;8.36;59.64;99904.19;5302747;27;20394;-84
2023/11/19 10:48:48;;;;;;;2.08;1.90;;;;;;;8.39;59.65;99898.94;5284944;27;20127;-85
2023/11/19 10:51:15;;;;;;;0.60;0.57;;;;;;;8.58;59.65;99895.06;5302196;27;20079;-85
2023/11/19 10:53:40;;;;;;;0.00;0.00;;;;;;;8.51;59.66;99893.47;5303154;27;20076;-85
2023/11/19 10:56:10;;;;;;;1.67;1.10;;;;;;;8.55;59.65;99882.16;5301937;27;31764;-85
2023/11/19 10:58:37;;;;;;;;;;;;;;;8.51;59.64;99886.53;5303554;27;20083;-85
2023/11/19 11:01:03;;;;;;;1.23;0.88;;;;;;;8.64;59.66;99886.28;5302549;27;20456;-85
2023/11/19 11:03:30;;;;;;;3.62;1.33;;;;;;;8.57;59.65;99876.06;5302950;27;20064;-85
2023/11/19 11:05:56;;;;;;;3.25;1.77;;;;;;;8.66;59.67;99872.41;5303170;27;20162;-85
2023/11/19 11:08:21;;;;;;;1.12;0.75;;;;;;;8.73;59.66;99866.16;5302093;27;23224;-84
2023/11/19 11:10:54;;;;;;;1.52;1.42;;;;;;;8.63;59.66;99867.28;5302387;27;20049;-85
2023/11/19 11:13:20;;;;;;;5.57;1.00;;;;;;;8.59;59.66;99857.84;5302768;27;20060;-85
2023/11/19 11:15:46;;;;;;;0.08;0.08;;;;;;;8.43;59.65;99844.34;5284116;27;20448;-85
2023/11/19 11:18:12;;;;;;;0.37;0.37;;;;;;;8.47;59.65;99832.16;5302539;27;20342;-85
2023/11/19 11:21:13;;;;;;;0.30;0.30;;;;;;;9.12;59.69;99832.38;4524738;31;96044;-93
2023/11/19 11:23:48;;;;;;;1.00;1.00;;;;;;;9.12;59.69;99832.38;4487174;31;20229;-92
2023/11/19 11:26:25;;;;;;;0.88;0.75;;;;;;;8.48;59.65;99841.66;4500266;31;20109;-93
2023/11/19 11:29:13;;;;;;;1.27;1.17;;;;;;;8.60;59.66;99841.41;4513220;31;20114;-92